Aérodrome :
LOGIN :

S'inscrire | Disclaimer

   EN    FR    IT 

 










Légende :    VFR   VFR Marginal   IFR   IFR Intensif   IFR Très Intensif
Visi : 
Plafond : 
>= 8 km
>= 3000ft
5 à 8 km
1000 à 3000 ft
1500m à 5 km
500 à 1000 ft
800 à 1500m
200 à 500 ft
< 800m
< 200 ft
Symboles :   Orages  Brouillard  Fortes neiges  Fortes précipitations  Vent > 20 kt
SIGMETs :   Divers  Orages  Givrage  Turbulence  Onde Orograph.  Cendres Volcan.






- Altitude de l'aérodrome : 796 ft
- Code IATA : SYT


LFLN - Saint-Yan

DERNIER METAR :
  • 261330Z AUTO VRB01KT 9999 FEW031 OVC062 16/13 Q1019 TEMPO 30012KT 4000 SHRA SCT008 SCT020CB

METARs EXPIRÉS :
  • 261300Z AUTO 01003KT 350V050 CAVOK 15/13 Q1019 TEMPO 4000 SHRA SCT008 SCT020CB
  • 261230Z AUTO VRB03KT 9999 FEW048/// OVC060/// ///TCU 15/14 Q1019 TEMPO 4000 SHRA SCT008 SCT020CB
  • 261200Z AUTO 32009KT 9999 -RA NSC 16/13 Q1019 TEMPO 2000 TSRA SCT008 SCT020CB
  • 261130Z AUTO VRB02KT 9999 FEW048/// BKN062/// OVC076/// ///TCU 17/13 Q1019 TEMPO 30012KT 2000 TSRA SCT008 SCT020CB
  • 261100Z AUTO VRB02KT 9999 ///TCU 17/12 Q1018 TEMPO 30012KT 2000 TSRA SCT008 SCT020CB
  • 261030Z AUTO 29003KT 9999 //////TCU 17/12 Q1018 TEMPO 2000 TSRA SCT008 SCT020CB
  • 261000Z AUTO VRB01KT 9999 //////TCU 17/12 Q1018 TEMPO 30012KT 2000 TSRA SCT008 SCT020CB
  • 260930Z AUTO 31006KT CAVOK 17/13 Q1018 TEMPO 2000 TSRA SCT008 SCT020CB
  • 260900Z AUTO 31007KT 9999 //////TCU 18/14 Q1018 TEMPO FEW025CB

TAF TAF LFLN
Valide du 26 à 12h jusqu'au 26 à 21h UTC


261100Z 2612/2621 VRB03KT CAVOK
TEMPO 2612/2617 -SHRA FEW025CB
PROB40
TEMPO 2612/2617 30012KT 4000 SHRA SCT008 SCT020CB
PROB30
TEMPO 2612/2614 2000 TSRA



MET'MAP, la Météo Aéronautique d'un coup d'oeil ! - Copyright ORBIFLY Décembre 2007 - Disclaimer

ORBIFLY MET'MAP TEAM :

Programmation & Développement : Alexandra Zaïnal
Sur une idée originale de : Baudouin d'Aumeries
Soutien technique & logistique : Manuel Goepfert
Assistance : Marc-Olivier Méhu




SOURCES & CREDITS :

   NOAA